Time;durP1;ratioP1;P1;durP2;ratioP2;P2;SDS_P1;SDS_P2;PMS_P1;PMS_P2;Temp;Humidity;BMP_temperature;BMP_pressure;BME280_temperature;BME280_humidity;BME280_pressure;Samples;Min_cycle;Max_cycle;Signal;HPM_P1;HPM_P2
2023/07/13 00:00:23;;;;;;;3.00;1.15;;;;;;;15.54;98.93;101272.03;5049566;28;20033;-59
2023/07/13 00:02:48;;;;;;;4.57;1.13;;;;;;;15.52;98.59;101279.00;5049121;28;20021;-60
2023/07/13 00:05:13;;;;;;;5.65;1.50;;;;;;;15.42;99.47;101279.66;5050038;28;20151;-60
2023/07/13 00:07:40;;;;;;;5.57;1.35;;;;;;;15.42;100.00;101287.47;5049831;28;20017;-59
2023/07/13 00:10:06;;;;;;;3.35;1.40;;;;;;;15.33;100.00;101289.06;5049881;28;20098;-60
2023/07/13 00:12:37;;;;;;;5.07;1.70;;;;;;;15.30;100.00;101278.59;5036973;28;20526;-59
2023/07/13 00:15:07;;;;;;;3.38;1.65;;;;;;;15.24;100.00;101265.41;5050110;28;20507;-60
2023/07/13 00:17:32;;;;;;;4.32;1.50;;;;;;;15.22;100.00;101281.03;5050092;28;20544;-59
2023/07/13 00:19:58;;;;;;;5.30;1.48;;;;;;;15.23;100.00;101271.47;5049580;28;20031;-59
2023/07/13 00:22:25;;;;;;;3.30;1.42;;;;;;;15.19;100.00;101280.09;5049551;28;20021;-59
2023/07/13 00:24:51;;;;;;;4.93;2.03;;;;;;;15.13;100.00;101279.13;5049756;28;20477;-59
2023/07/13 00:27:17;;;;;;;7.80;2.10;;;;;;;15.09;100.00;101281.66;5044909;28;20017;-59
2023/07/13 00:29:43;;;;;;;6.25;1.92;;;;;;;15.06;100.00;101279.84;5040678;28;20028;-59
2023/07/13 00:32:09;;;;;;;6.45;1.80;;;;;;;15.07;100.00;101270.28;5048807;28;20070;-58
2023/07/13 00:34:34;;;;;;;4.25;1.65;;;;;;;15.05;100.00;101272.88;5038429;28;20028;-59
2023/07/13 00:37:00;;;;;;;3.38;1.73;;;;;;;14.99;100.00;101281.47;5047923;28;20024;-59
2023/07/13 00:39:25;;;;;;;6.15;1.60;;;;;;;14.91;100.00;101283.03;5044075;28;20037;-59
2023/07/13 00:41:51;;;;;;;4.78;1.60;;;;;;;14.94;100.00;101282.19;5040497;28;20063;-59
2023/07/13 00:44:18;;;;;;;7.13;2.25;;;;;;;14.96;100.00;101283.13;5049381;28;20025;-59
2023/07/13 00:46:44;;;;;;;8.40;2.13;;;;;;;15.02;100.00;101284.97;5049618;28;20020;-59
2023/07/13 00:49:13;;;;;;;7.10;1.98;;;;;;;15.05;100.00;101292.88;5036441;28;20409;-59
2023/07/13 00:52:03;;;;;;;4.15;1.30;;;;;;;15.00;100.00;101293.63;5037322;28;20063;-59
2023/07/13 00:54:36;;;;;;;4.28;1.77;;;;;;;14.95;100.00;101291.81;5037390;28;20033;-59
2023/07/13 00:57:05;;;;;;;5.35;1.75;;;;;;;14.88;100.00;101296.88;5049162;28;20028;-59
2023/07/13 00:59:31;;;;;;;5.47;1.83;;;;;;;14.86;100.00;101287.25;5048996;28;20535;-60
2023/07/13 01:01:57;;;;;;;5.95;1.85;;;;;;;14.84;100.00;101288.97;5048501;28;20021;-59
2023/07/13 01:04:25;;;;;;;5.25;2.00;;;;;;;14.80;100.00;101293.22;5048480;28;20047;-59
2023/07/13 01:06:50;;;;;;;4.18;1.70;;;;;;;14.74;100.00;101293.06;5049062;28;20517;-59
2023/07/13 01:09:16;;;;;;;6.68;2.55;;;;;;;14.70;100.00;101286.91;5048823;28;20108;-59
2023/07/13 01:11:41;;;;;;;4.75;1.85;;;;;;;14.69;100.00;101289.47;5048391;28;20036;-59
2023/07/13 01:14:08;;;;;;;6.47;1.90;;;;;;;14.68;100.00;101287.72;5048711;28;20033;-59
2023/07/13 01:16:35;;;;;;;5.90;1.95;;;;;;;14.60;100.00;101291.03;5048626;28;20028;-59
2023/07/13 01:19:02;;;;;;;4.68;1.75;;;;;;;14.56;100.00;101289.19;5048693;28;20071;-60
2023/07/13 01:21:30;;;;;;;8.52;2.08;;;;;;;14.59;100.00;101298.84;5048503;28;20033;-58
2023/07/13 01:23:56;;;;;;;2.22;1.50;;;;;;;14.55;100.00;101291.78;5048583;28;20804;-59
2023/07/13 01:26:21;;;;;;;5.60;1.40;;;;;;;14.52;100.00;101289.97;5048627;28;20474;-60
2023/07/13 01:28:47;;;;;;;5.22;1.77;;;;;;;14.51;100.00;101296.03;5048545;28;20055;-58
2023/07/13 01:31:13;;;;;;;3.03;1.42;;;;;;;14.56;100.00;101294.41;5047986;28;20029;-60
2023/07/13 01:33:40;;;;;;;5.57;1.80;;;;;;;14.54;100.00;101290.88;5048505;28;20098;-59
2023/07/13 01:36:07;;;;;;;5.47;1.55;;;;;;;14.51;100.00;101296.03;5047699;28;20060;-59
2023/07/13 01:38:33;;;;;;;4.28;1.60;;;;;;;14.53;100.00;101287.38;5048528;28;20047;-60
2023/07/13 01:40:59;;;;;;;4.82;1.58;;;;;;;14.58;100.00;101300.56;5047597;28;20032;-59
2023/07/13 01:43:24;;;;;;;6.00;2.13;;;;;;;14.58;100.00;101292.72;5048445;28;20457;-59
2023/07/13 01:45:50;;;;;;;4.75;1.48;;;;;;;14.56;100.00;101299.63;5047574;28;20024;-60
2023/07/13 01:48:15;;;;;;;5.97;1.77;;;;;;;14.54;100.00;101301.31;5048548;28;20109;-59
2023/07/13 01:50:40;;;;;;;5.47;1.85;;;;;;;14.52;100.00;101303.91;5047000;28;20040;-59
2023/07/13 01:53:06;;;;;;;6.13;1.73;;;;;;;14.44;100.00;101301.94;5037218;28;20036;-59
2023/07/13 01:55:32;;;;;;;9.25;1.98;;;;;;;14.43;100.00;101302.81;5045270;28;20489;-59
2023/07/13 01:57:57;;;;;;;5.85;1.83;;;;;;;14.40;100.00;101301.88;5047459;28;20511;-59
2023/07/13 02:00:22;;;;;;;4.93;1.63;;;;;;;14.40;100.00;101304.50;5047800;28;20024;-59
2023/07/13 02:02:48;;;;;;;7.07;2.20;;;;;;;14.46;100.00;101302.88;5048280;28;20409;-59
2023/07/13 02:05:14;;;;;;;5.60;1.70;;;;;;;14.47;100.00;101304.63;5047871;28;20017;-60
2023/07/13 02:07:40;;;;;;;5.00;1.77;;;;;;;14.46;100.00;101300.28;5047809;28;20053;-60
2023/07/13 02:10:09;;;;;;;10.02;2.05;;;;;;;14.50;100.00;101305.56;5046986;28;20037;-59
2023/07/13 02:12:36;;;;;;;5.43;1.83;;;;;;;14.48;100.00;101306.41;5047798;28;20103;-58
2023/07/13 02:15:02;;;;;;;5.13;2.22;;;;;;;14.43;100.00;101314.09;5044856;28;20036;-59
2023/07/13 02:17:27;;;;;;;5.25;2.17;;;;;;;14.36;100.00;101314.81;5037722;28;20025;-60
2023/07/13 02:19:53;;;;;;;6.55;2.33;;;;;;;14.39;100.00;101314.91;5034196;28;20393;-59
2023/07/13 02:22:18;;;;;;;7.80;2.03;;;;;;;14.38;100.00;101306.19;5038532;28;20025;-59
2023/07/13 02:24:43;;;;;;;8.65;2.20;;;;;;;14.37;100.00;101312.22;5030340;28;20040;-59
2023/07/13 02:27:09;;;;;;;8.90;2.63;;;;;;;14.36;100.00;101306.97;5047823;28;20092;-60
2023/07/13 02:29:34;;;;;;;5.53;2.03;;;;;;;14.37;100.00;101301.78;5047068;28;20028;-59
2023/07/13 02:31:59;;;;;;;5.80;1.98;;;;;;;14.37;100.00;101301.78;5047471;28;20025;-60
2023/07/13 02:34:24;;;;;;;5.65;2.28;;;;;;;14.36;100.00;101299.16;5044084;28;20080;-59
2023/07/13 02:36:51;;;;;;;7.75;2.35;;;;;;;14.31;100.00;101303.38;5038125;28;20025;-60
2023/07/13 02:39:16;;;;;;;9.70;2.55;;;;;;;14.28;100.00;101306.81;5046836;28;20126;-60
2023/07/13 02:41:42;;;;;;;6.18;2.03;;;;;;;14.20;100.00;101310.94;5047408;28;20439;-59
2023/07/13 02:44:08;;;;;;;8.27;2.03;;;;;;;14.19;100.00;101314.41;5046566;28;20040;-59
2023/07/13 02:46:36;;;;;;;3.85;2.10;;;;;;;14.14;100.00;101312.56;5046743;28;20021;-59
2023/07/13 02:49:02;;;;;;;5.60;2.08;;;;;;;14.12;100.00;101308.16;5046644;28;20017;-59
2023/07/13 02:51:27;;;;;;;5.93;1.73;;;;;;;14.10;100.00;101310.75;5047168;28;20496;-59
2023/07/13 02:53:52;;;;;;;8.77;2.67;;;;;;;14.09;100.00;101313.28;5029785;28;20025;-59
2023/07/13 02:56:21;;;;;;;8.32;2.15;;;;;;;14.10;100.00;101312.44;5038223;28;20039;-58
2023/07/13 02:58:47;;;;;;;9.23;2.95;;;;;;;14.05;100.00;101309.72;5046826;28;20021;-59
2023/07/13 03:01:12;;;;;;;6.65;2.20;;;;;;;14.03;100.00;101308.81;5047367;28;20607;-59
2023/07/13 03:03:38;;;;;;;8.38;2.50;;;;;;;14.02;100.00;101307.94;5050409;28;20028;-57
2023/07/13 03:06:07;;;;;;;5.88;2.25;;;;;;;14.05;100.00;101312.31;5051286;28;20032;-59
2023/07/13 03:08:32;;;;;;;9.68;3.13;;;;;;;14.00;100.00;101311.31;5050717;28;20392;-59
2023/07/13 03:11:02;;;;;;;7.38;2.30;;;;;;;13.99;100.00;101315.69;5051671;28;20067;-59
2023/07/13 03:13:28;;;;;;;10.25;2.88;;;;;;;13.96;100.00;101312.97;5051017;28;20025;-59
2023/07/13 03:15:53;;;;;;;8.88;2.78;;;;;;;13.98;100.00;101313.00;5050211;28;20036;-59
2023/07/13 03:18:19;;;;;;;7.80;3.13;;;;;;;13.99;100.00;101312.19;5038093;28;20029;-59
2023/07/13 03:20:44;;;;;;;6.68;2.50;;;;;;;13.98;100.00;101305.19;5051034;28;20078;-58
2023/07/13 03:23:09;;;;;;;5.82;2.58;;;;;;;13.92;100.00;101309.41;5038510;28;20029;-60
2023/07/13 03:25:35;;;;;;;8.25;2.88;;;;;;;13.94;100.00;101309.47;5049618;28;20460;-59
2023/07/13 03:28:00;;;;;;;6.70;2.53;;;;;;;13.92;100.00;101322.44;5048449;28;20095;-59
2023/07/13 03:30:25;;;;;;;7.53;2.70;;;;;;;13.86;100.00;101317.06;5049591;28;20595;-59
2023/07/13 03:32:50;;;;;;;7.22;2.70;;;;;;;13.87;100.00;101324.03;5048686;28;20025;-60
2023/07/13 03:35:16;;;;;;;9.48;2.50;;;;;;;13.89;100.00;101330.16;5039872;28;20033;-59
2023/07/13 03:37:42;;;;;;;7.80;2.45;;;;;;;13.82;100.00;101328.25;5045288;28;20020;-59
2023/07/13 03:40:09;;;;;;;4.28;2.47;;;;;;;13.84;100.00;101329.16;5049218;28;20516;-60
2023/07/13 03:42:34;;;;;;;7.18;2.58;;;;;;;13.84;100.00;101328.28;5049613;28;20361;-59
2023/07/13 03:45:00;;;;;;;8.60;2.75;;;;;;;13.77;100.00;101333.34;5050453;28;20067;-58
2023/07/13 03:47:25;;;;;;;9.43;2.97;;;;;;;13.75;100.00;101329.81;5049115;28;20112;-59
2023/07/13 03:49:51;;;;;;;8.73;3.05;;;;;;;13.78;100.00;101339.44;5050149;28;20513;-60
2023/07/13 03:52:16;;;;;;;10.57;2.80;;;;;;;13.70;100.00;101336.63;5050319;28;20052;-59
2023/07/13 03:54:41;;;;;;;7.97;2.63;;;;;;;13.75;100.00;101341.94;5050476;28;20697;-59
2023/07/13 03:57:08;;;;;;;8.40;2.80;;;;;;;13.74;100.00;101342.78;5036217;28;20031;-59
2023/07/13 03:59:33;;;;;;;9.45;2.65;;;;;;;13.71;100.00;101342.72;5050438;28;20032;-59
2023/07/13 04:01:59;;;;;;;9.45;3.90;;;;;;;13.62;100.00;101336.41;5050205;28;20075;-58
2023/07/13 04:04:24;;;;;;;8.55;3.05;;;;;;;13.64;100.00;101342.53;5049687;28;20024;-59
2023/07/13 04:06:49;;;;;;;7.53;2.70;;;;;;;13.66;100.00;101350.38;5048822;28;20025;-59
2023/07/13 04:09:14;;;;;;;11.25;4.13;;;;;;;13.69;100.00;101355.69;5050189;28;20033;-59
2023/07/13 04:11:40;;;;;;;11.25;3.00;;;;;;;13.70;100.00;101360.06;5049894;28;20100;-58
2023/07/13 04:14:05;;;;;;;9.55;3.72;;;;;;;13.69;100.00;101355.69;5049184;28;20107;-59
2023/07/13 04:16:31;;;;;;;12.70;3.30;;;;;;;13.74;100.00;101364.53;5050088;28;20075;-59
2023/07/13 04:18:59;;;;;;;8.27;3.55;;;;;;;13.78;100.00;101365.50;5049795;28;20086;-59
2023/07/13 04:21:26;;;;;;;9.82;3.78;;;;;;;13.85;100.00;101358.72;5049304;28;20103;-59
2023/07/13 04:23:52;;;;;;;10.10;4.13;;;;;;;13.88;100.00;101362.28;5049757;28;20106;-59
2023/07/13 04:26:17;;;;;;;11.98;3.78;;;;;;;13.95;100.00;101372.84;5048876;28;20480;-58
2023/07/13 04:28:42;;;;;;;15.52;3.70;;;;;;;13.99;100.00;101364.28;5049546;28;20021;-59
2023/07/13 04:31:08;;;;;;;9.55;3.67;;;;;;;14.05;100.00;101370.53;5049840;28;20025;-59
2023/07/13 04:33:33;;;;;;;12.27;4.30;;;;;;;14.11;100.00;101376.75;5049866;28;20100;-59
2023/07/13 04:35:59;;;;;;;16.17;5.57;;;;;;;14.12;100.00;101368.09;5036178;28;20088;-59
2023/07/13 04:38:27;;;;;;;18.83;6.55;;;;;;;14.17;100.00;101363.88;5040826;28;20065;-59
2023/07/13 04:41:02;;;;;;;16.80;6.25;;;;;;;14.16;100.00;101373.41;5045493;28;20060;-59
2023/07/13 04:43:28;;;;;;;19.13;6.82;;;;;;;14.17;100.00;101379.53;5049947;28;20029;-59
2023/07/13 04:45:53;;;;;;;16.60;6.45;;;;;;;14.22;100.00;101374.41;5048681;28;20083;-59
2023/07/13 04:48:19;;;;;;;19.02;7.78;;;;;;;14.23;100.00;101379.66;5049217;28;20032;-58
2023/07/13 04:50:45;;;;;;;15.57;7.38;;;;;;;14.29;100.00;101391.97;5049490;28;20027;-59
2023/07/13 04:53:11;;;;;;;20.00;8.25;;;;;;;14.33;100.00;101383.41;5048904;28;20043;-60
2023/07/13 04:55:37;;;;;;;20.00;8.27;;;;;;;14.37;100.00;101376.53;5049387;28;20021;-59
2023/07/13 04:58:02;;;;;;;15.27;7.50;;;;;;;14.45;100.00;101384.53;5049306;28;20037;-60
2023/07/13 05:00:28;;;;;;;18.67;8.18;;;;;;;14.49;100.00;101387.28;5035503;28;20029;-60
2023/07/13 05:02:55;;;;;;;18.15;8.23;;;;;;;14.56;100.00;101379.56;5048254;28;20037;-60
2023/07/13 05:05:20;;;;;;;19.38;8.73;;;;;;;14.59;100.00;101385.75;5049447;28;20067;-60
2023/07/13 05:07:46;;;;;;;17.55;8.32;;;;;;;14.64;100.00;101391.94;5049204;28;20406;-59
2023/07/13 05:10:11;;;;;;;16.33;8.13;;;;;;;14.70;100.00;101398.16;5048441;28;20025;-59
2023/07/13 05:12:36;;;;;;;21.90;8.68;;;;;;;14.72;100.00;101393.88;5049391;28;20021;-60
2023/07/13 05:15:02;;;;;;;19.98;8.98;;;;;;;14.80;100.00;101402.78;5045471;28;20051;-59
2023/07/13 05:17:28;;;;;;;23.23;10.25;;;;;;;14.81;100.00;101390.59;5045595;28;20035;-59
2023/07/13 05:19:53;;;;;;;22.08;9.43;;;;;;;14.88;100.00;101397.75;5046226;28;20381;-59
2023/07/13 05:22:18;;;;;;;19.95;9.40;;;;;;;14.95;100.00;101406.63;5045975;28;20051;-59
2023/07/13 05:24:43;;;;;;;18.48;9.30;;;;;;;14.96;100.00;101409.25;5041710;28;20607;-58
2023/07/13 05:27:09;;;;;;;15.20;8.25;;;;;;;15.01;100.00;101404.13;5041152;28;20035;-59
2023/07/13 05:29:34;;;;;;;17.77;9.23;;;;;;;15.06;100.00;101410.34;5044791;28;20033;-59
2023/07/13 05:32:00;;;;;;;15.38;9.40;;;;;;;15.10;100.00;101422.63;5046725;28;20024;-59
2023/07/13 05:34:26;;;;;;;24.48;10.85;;;;;;;15.07;100.00;101414.72;5045323;28;20468;-59
2023/07/13 05:36:52;;;;;;;18.67;10.13;;;;;;;15.05;100.00;101419.03;5046334;28;20554;-58
2023/07/13 05:39:17;;;;;;;18.17;9.27;;;;;;;15.11;100.00;101421.75;5044942;28;20400;-59
2023/07/13 05:41:42;;;;;;;15.15;8.73;;;;;;;15.17;100.00;101422.75;5045809;28;20048;-59
2023/07/13 05:44:07;;;;;;;18.50;9.27;;;;;;;15.18;100.00;101420.16;5045000;28;20037;-60
2023/07/13 05:46:33;;;;;;;21.10;10.23;;;;;;;15.25;100.00;101426.41;5045627;28;20060;-61
2023/07/13 05:48:59;;;;;;;17.38;8.98;;;;;;;15.29;100.00;101422.16;5040966;28;20090;-59
2023/07/13 05:51:24;;;;;;;23.77;9.68;;;;;;;15.35;100.00;101428.38;5037258;28;20068;-58
2023/07/13 05:53:49;;;;;;;17.63;9.60;;;;;;;15.39;100.00;101434.53;5039093;28;20095;-60
2023/07/13 05:56:15;;;;;;;22.63;10.98;;;;;;;15.40;100.00;101435.44;5041513;28;20110;-60
2023/07/13 05:58:40;;;;;;;22.95;10.75;;;;;;;15.47;100.00;101432.09;5043019;28;20103;-60
2023/07/13 06:01:10;;;;;;;20.50;11.23;;;;;;;15.42;100.00;101433.72;5039064;28;20528;-60
2023/07/13 06:03:37;;;;;;;21.93;11.63;;;;;;;15.36;100.00;101435.34;5046081;28;20576;-61
2023/07/13 06:06:04;;;;;;;21.85;11.52;;;;;;;15.41;100.00;101442.41;5045446;28;20037;-60
2023/07/13 06:08:30;;;;;;;20.55;11.35;;;;;;;15.41;100.00;101443.31;5046248;28;20064;-60
2023/07/13 06:11:09;;;;;;;22.83;11.88;;;;;;;15.47;100.00;101446.03;5044905;28;20116;-60
2023/07/13 06:13:35;;;;;;;21.08;12.10;;;;;;;15.52;100.00;101448.75;5045725;28;20104;-59
2023/07/13 06:16:03;;;;;;;22.48;11.25;;;;;;;15.60;100.00;101447.16;5044819;28;20162;-60
2023/07/13 06:18:29;;;;;;;21.80;12.15;;;;;;;15.71;100.00;101447.41;5038044;28;20118;-60
2023/07/13 06:20:54;;;;;;;18.40;11.30;;;;;;;15.78;100.00;101448.41;5038725;28;20063;-60
2023/07/13 06:23:19;;;;;;;22.75;11.60;;;;;;;15.85;100.00;101455.50;5047707;28;20035;-59
2023/07/13 06:25:45;;;;;;;18.60;10.07;;;;;;;15.93;100.00;101453.06;5048023;28;20040;-60
2023/07/13 06:28:10;;;;;;;23.60;11.52;;;;;;;15.90;100.00;101454.72;5048316;28;20155;-61
2023/07/13 06:30:39;;;;;;;22.40;11.80;;;;;;;15.89;100.00;101455.56;5047090;28;20032;-60
2023/07/13 06:33:04;;;;;;;18.35;11.38;;;;;;;15.93;100.00;101454.78;5047475;28;20028;-60
2023/07/13 06:35:29;;;;;;;22.02;12.73;;;;;;;15.94;100.00;101459.13;5035697;28;20476;-60
2023/07/13 06:37:54;;;;;;;22.10;11.75;;;;;;;15.98;100.00;101463.59;5045537;28;20188;-60
2023/07/13 06:40:20;;;;;;;20.55;11.63;;;;;;;15.96;100.00;101460.06;5045937;28;20032;-60
2023/07/13 06:42:45;;;;;;;19.02;11.05;;;;;;;15.97;100.00;101469.69;5032083;28;20028;-59
2023/07/13 06:45:10;;;;;;;17.00;10.65;;;;;;;16.02;100.00;101470.69;5045549;28;20036;-59
2023/07/13 06:47:36;;;;;;;16.08;10.40;;;;;;;16.03;100.00;101469.81;5045253;28;20389;-60
2023/07/13 06:50:01;;;;;;;18.08;11.80;;;;;;;16.05;100.00;101468.13;5043619;28;20087;-60
2023/07/13 06:52:26;;;;;;;19.02;10.60;;;;;;;16.08;100.00;101473.41;5044897;28;20029;-60
2023/07/13 06:54:52;;;;;;;19.50;10.63;;;;;;;16.06;100.00;101467.25;5045517;28;20032;-60
2023/07/13 06:57:18;;;;;;;25.35;11.93;;;;;;;16.04;100.00;101475.94;5046411;28;20029;-60
2023/07/13 06:59:43;;;;;;;19.80;11.85;;;;;;;16.10;100.00;101480.41;5047194;28;20025;-60
2023/07/13 07:02:10;;;;;;;16.38;9.50;;;;;;;16.17;100.00;101482.28;5046876;28;20055;-60
2023/07/13 07:04:35;;;;;;;21.48;10.73;;;;;;;16.23;100.00;101486.72;5047160;28;20028;-59
2023/07/13 07:07:01;;;;;;;19.63;11.20;;;;;;;16.17;100.00;101482.28;5046819;28;20029;-60
2023/07/13 07:09:26;;;;;;;21.13;11.05;;;;;;;16.19;100.00;101486.66;5047297;28;20051;-60
2023/07/13 07:11:51;;;;;;;20.63;10.90;;;;;;;16.26;100.00;101484.19;5046936;28;20104;-60
2023/07/13 07:14:17;;;;;;;18.50;10.90;;;;;;;16.33;100.00;101484.31;5046618;28;20503;-59
2023/07/13 07:16:42;;;;;;;19.73;9.85;;;;;;;16.42;100.00;101485.34;5044158;28;20067;-60
2023/07/13 07:19:08;;;;;;;23.40;10.23;;;;;;;16.42;100.00;101482.72;5037160;28;20040;-60
2023/07/13 07:21:33;;;;;;;17.05;10.25;;;;;;;16.43;100.00;101474.03;5046793;28;20025;-60
2023/07/13 07:23:59;;;;;;;17.83;10.35;;;;;;;16.43;100.00;101484.47;5047239;28;20036;-59
2023/07/13 07:26:25;;;;;;;17.80;9.90;;;;;;;16.50;100.00;101480.22;5046817;28;20520;-60
2023/07/13 07:28:50;;;;;;;15.82;9.75;;;;;;;16.53;100.00;101482.94;5046659;28;20111;-60
2023/07/13 07:31:16;;;;;;;17.52;9.50;;;;;;;16.56;100.00;101483.84;5046768;28;20031;-60
2023/07/13 07:33:41;;;;;;;15.02;9.43;;;;;;;16.62;100.00;101490.06;5047122;28;20021;-60
2023/07/13 07:36:06;;;;;;;18.00;9.68;;;;;;;16.78;100.00;101485.97;5043018;28;20081;-60
2023/07/13 07:38:32;;;;;;;15.48;9.30;;;;;;;16.96;100.00;101489.72;5036882;28;20537;-60
2023/07/13 07:40:57;;;;;;;16.83;8.45;;;;;;;17.20;100.00;101493.63;5046373;28;20099;-59
2023/07/13 07:43:22;;;;;;;16.33;8.25;;;;;;;17.46;100.00;101495.72;5047060;28;20036;-60
2023/07/13 07:45:47;;;;;;;14.48;8.05;;;;;;;17.53;100.00;101481.84;5046770;28;20028;-60
2023/07/13 07:48:13;;;;;;;15.27;7.78;;;;;;;17.59;100.00;101492.38;5048099;28;20025;-60
2023/07/13 07:50:38;;;;;;;12.35;6.88;;;;;;;17.65;100.00;101499.44;5050625;28;20424;-60
2023/07/13 07:53:07;;;;;;;14.02;6.88;;;;;;;17.76;100.00;101499.59;5050163;28;20025;-60
2023/07/13 07:55:34;;;;;;;14.57;6.75;;;;;;;17.74;100.00;101502.19;5049065;28;20544;-60
2023/07/13 07:57:59;;;;;;;11.88;6.60;;;;;;;17.89;100.00;101495.38;5050514;28;20416;-60
2023/07/13 08:00:24;;;;;;;12.48;6.00;;;;;;;18.14;100.00;101498.31;5049721;28;20017;-60
2023/07/13 08:02:50;;;;;;;11.88;6.30;;;;;;;18.44;100.00;101499.50;5050636;28;20021;-60
2023/07/13 08:05:15;;;;;;;12.95;5.95;;;;;;;18.70;100.00;101493.59;5049152;28;20027;-59
2023/07/13 08:07:42;;;;;;;12.73;6.53;;;;;;;18.71;100.00;101491.84;5050132;28;20048;-60
2023/07/13 08:10:08;;;;;;;12.68;6.75;;;;;;;18.87;100.00;101499.88;5050165;28;20071;-60
2023/07/13 08:12:37;;;;;;;13.00;6.20;;;;;;;19.00;100.00;101496.44;5050239;28;20476;-60
2023/07/13 08:15:04;;;;;;;10.00;5.57;;;;;;;19.13;100.00;101500.06;5049760;28;20039;-60
2023/07/13 08:17:30;;;;;;;11.13;5.55;;;;;;;19.16;100.00;101500.09;5050376;28;20429;-60
2023/07/13 08:19:55;;;;;;;10.55;4.63;;;;;;;19.22;100.00;101499.25;5050011;28;20100;-60
2023/07/13 08:22:20;;;;;;;9.07;4.30;;;;;;;19.58;100.00;101499.44;5049531;28;20029;-60
2023/07/13 08:24:47;;;;;;;10.38;4.50;;;;;;;19.95;99.61;101505.75;5048949;28;20017;-60
2023/07/13 08:27:12;;;;;;;9.90;4.20;;;;;;;20.15;94.43;101509.31;5040331;28;20505;-60
2023/07/13 08:29:38;;;;;;;11.65;4.65;;;;;;;20.31;92.88;101508.50;5046743;28;20083;-60
2023/07/13 08:32:06;;;;;;;8.18;4.40;;;;;;;20.42;90.77;101501.47;5050026;28;20033;-60
2023/07/13 08:34:31;;;;;;;6.25;4.25;;;;;;;20.50;89.97;101498.88;5049676;28;20017;-60
2023/07/13 08:36:56;;;;;;;7.72;3.53;;;;;;;20.50;90.83;101501.50;5049469;28;20422;-61
2023/07/13 08:39:21;;;;;;;5.80;3.35;;;;;;;20.56;93.18;101501.47;5048940;28;20048;-61
2023/07/13 08:41:56;;;;;;;8.38;3.88;;;;;;;20.61;89.70;101490.97;5048629;28;20049;-61
2023/07/13 08:44:35;;;;;;;10.93;4.18;;;;;;;20.61;89.39;101505.03;5049534;28;20033;-60
2023/07/13 08:47:02;;;;;;;6.95;4.05;;;;;;;20.51;87.02;101501.50;5049154;28;20429;-61
2023/07/13 08:49:28;;;;;;;6.88;4.28;;;;;;;20.40;85.47;101504.09;5048604;28;20425;-60
2023/07/13 08:51:57;;;;;;;5.13;3.67;;;;;;;20.44;87.43;101509.38;5049560;28;20065;-61
2023/07/13 08:54:36;;;;;;;5.45;3.50;;;;;;;20.50;88.22;101509.38;5049938;28;20017;-60
2023/07/13 08:57:12;;;;;;;7.13;3.60;;;;;;;20.57;87.83;101507.63;5046851;28;20035;-61
2023/07/13 08:59:37;;;;;;;8.48;3.70;;;;;;;20.48;88.46;101506.75;5049671;28;20021;-60
2023/07/13 09:02:28;;;;;;;6.53;3.88;;;;;;;20.49;88.61;101499.75;5049085;28;20031;-60
2023/07/13 09:04:57;;;;;;;7.93;4.30;;;;;;;20.50;88.86;101509.38;5049683;28;20374;-61
2023/07/13 09:07:41;;;;;;;7.28;3.90;;;;;;;20.36;88.45;101497.06;5035259;28;20357;-61
2023/07/13 09:10:18;;;;;;;8.40;3.40;;;;;;;20.32;88.20;101497.97;5049041;28;20029;-61
2023/07/13 09:13:18;;;;;;;8.20;4.05;;;;;;;20.47;87.75;101505.00;5049307;28;20056;-61
2023/07/13 09:15:45;;;;;;;9.50;4.10;;;;;;;20.60;86.88;101503.25;5061526;28;20042;-60
2023/07/13 09:18:14;;;;;;;7.80;3.85;;;;;;;20.65;86.04;101492.75;5044452;28;20029;-60
2023/07/13 09:20:48;;;;;;;7.10;4.03;;;;;;;20.76;85.65;101496.22;5048922;28;20025;-61
2023/07/13 09:23:20;;;;;;;6.50;3.35;;;;;;;20.94;85.39;101499.75;5048514;28;20024;-61
2023/07/13 09:25:50;;;;;;;9.75;3.80;;;;;;;20.94;82.43;101497.13;5048373;28;20017;-60
2023/07/13 09:28:23;;;;;;;5.20;3.88;;;;;;;20.82;82.12;101495.34;5048655;28;20388;-60
2023/07/13 09:31:04;;;;;;;8.45;4.22;;;;;;;20.64;82.53;101497.13;5047555;28;20032;-60
2023/07/13 09:33:30;;;;;;;6.35;3.28;;;;;;;20.50;83.07;101504.13;5049308;28;20060;-60
2023/07/13 09:35:59;;;;;;;8.65;3.92;;;;;;;20.56;84.79;101493.59;5048446;28;20166;-60
2023/07/13 09:38:29;;;;;;;5.72;3.22;;;;;;;20.86;82.05;101496.22;5048608;28;20132;-61
2023/07/13 09:41:23;;;;;;;6.10;3.50;;;;;;;20.99;80.35;101491.88;5049255;28;20047;-60
2023/07/13 09:44:31;;;;;;;5.53;3.08;;;;;;;21.07;81.18;101495.38;5048835;28;20489;-60
2023/07/13 09:46:57;;;;;;;8.32;3.78;;;;;;;21.04;78.79;101503.28;5047557;28;20041;-61
2023/07/13 09:49:28;;;;;;;8.27;3.30;;;;;;;21.13;78.48;101493.59;5047960;28;20143;-60
2023/07/13 09:52:06;;;;;;;8.13;3.60;;;;;;;21.15;79.36;101500.63;5049080;28;20102;-61
2023/07/13 09:54:36;;;;;;;6.72;3.47;;;;;;;21.31;78.68;101498.84;5049055;28;20017;-61
2023/07/13 09:57:11;;;;;;;8.52;2.92;;;;;;;21.43;75.84;101495.28;5048601;28;20021;-60
2023/07/13 09:59:41;;;;;;;5.53;2.90;;;;;;;21.33;73.09;101498.81;5048753;28;20029;-60
2023/07/13 10:02:32;;;;;;;4.03;2.53;;;;;;;21.81;76.35;101496.03;5035639;28;20033;-61
2023/07/13 10:04:59;;;;;;;;;;;;;;;22.04;71.60;101505.59;5034974;28;20036;-61
2023/07/13 10:07:24;;;;;;;6.25;2.55;;;;;;;22.12;71.27;101504.66;5048835;28;20300;-61
2023/07/13 10:09:54;;;;;;;3.92;2.28;;;;;;;21.92;71.12;101506.53;5038044;28;20021;-61
2023/07/13 10:12:20;;;;;;;5.35;2.13;;;;;;;21.88;71.83;101498.63;5035375;28;20060;-60
2023/07/13 10:14:46;;;;;;;4.90;2.20;;;;;;;21.66;73.10;101494.31;5034198;28;20056;-61
2023/07/13 10:17:13;;;;;;;7.25;2.53;;;;;;;21.53;73.80;101493.50;5048508;28;20453;-61
2023/07/13 10:19:43;;;;;;;6.32;2.70;;;;;;;21.46;72.90;101491.78;5048158;28;20017;-61
2023/07/13 10:22:27;;;;;;;6.75;2.10;;;;;;;21.37;74.48;101503.22;5047870;28;20036;-60
2023/07/13 10:24:54;;;;;;;4.18;2.95;;;;;;;21.58;74.81;101502.28;5035071;28;20024;-61
2023/07/13 10:27:35;;;;;;;4.97;2.63;;;;;;;21.92;74.92;101506.53;5048348;28;20028;-61
2023/07/13 10:30:28;;;;;;;5.88;2.08;;;;;;;22.22;74.95;101501.09;5047269;28;20029;-61
2023/07/13 10:32:54;;;;;;;2.88;1.90;;;;;;;22.27;70.67;101496.66;5043552;28;20029;-61
2023/07/13 10:35:22;;;;;;;4.45;1.60;;;;;;;22.24;68.58;101507.22;5038317;28;20031;-61
2023/07/13 10:37:51;;;;;;;4.25;1.60;;;;;;;22.09;67.73;101507.34;5047073;28;20036;-61
2023/07/13 10:40:24;;;;;;;6.65;2.47;;;;;;;21.92;71.03;101505.66;5036142;28;20033;-61
2023/07/13 10:42:52;;;;;;;7.00;1.92;;;;;;;21.64;71.17;101501.34;5046324;28;20024;-61
2023/07/13 10:45:20;;;;;;;5.18;2.08;;;;;;;21.43;72.53;101507.56;5047513;28;20129;-60
2023/07/13 10:47:49;;;;;;;5.80;1.77;;;;;;;21.46;74.50;101520.75;5047128;28;20055;-60
2023/07/13 10:50:20;;;;;;;5.28;2.05;;;;;;;21.41;80.22;101528.66;5034365;28;20052;-61
2023/07/13 10:52:50;;;;;;;6.55;2.10;;;;;;;21.30;87.92;101539.22;5047150;28;20033;-61
2023/07/13 10:55:40;;;;;;;6.30;2.65;;;;;;;20.94;91.05;101556.81;5047097;28;20025;-61
2023/07/13 10:58:11;;;;;;;5.63;2.90;;;;;;;20.58;97.93;101557.66;5047719;28;20052;-60
2023/07/13 11:00:46;;;;;;;6.13;3.15;;;;;;;20.48;100.00;101551.50;5047099;28;20028;-60
2023/07/13 11:03:16;;;;;;;5.50;3.00;;;;;;;20.47;100.00;101547.09;5047485;28;20124;-61
2023/07/13 11:05:41;;;;;;;6.93;4.32;;;;;;;20.33;100.00;101547.06;5047716;28;20025;-61
2023/07/13 11:08:38;;;;;;;5.75;3.80;;;;;;;19.85;100.00;101547.78;5042309;28;20024;-61
2023/07/13 11:11:23;;;;;;;7.57;4.45;;;;;;;19.79;100.00;101539.84;5037965;28;20029;-61
2023/07/13 11:13:49;;;;;;;8.48;4.88;;;;;;;20.04;100.00;101539.94;5046686;28;20381;-61
2023/07/13 11:16:45;;;;;;;6.82;4.30;;;;;;;20.46;100.00;101549.72;5046874;28;20114;-60